Time;durP1;ratioP1;P1;durP2;ratioP2;P2;SDS_P1;SDS_P2;PMS_P1;PMS_P2;Temp;Humidity;BMP_temperature;BMP_pressure;BME280_temperature;BME280_humidity;BME280_pressure;Samples;Min_cycle;Max_cycle;Signal;HPM_P1;HPM_P2
2023/03/10 00:00:29;;;;;;;3.60;2.05;;;;;;;8.07;72.66;98689.59;5116762;28;20046;-63
2023/03/10 00:02:56;;;;;;;4.30;2.00;;;;;;;8.06;72.94;98687.97;5114400;28;20119;-62
2023/03/10 00:05:24;;;;;;;3.88;1.83;;;;;;;8.08;72.82;98695.75;5122898;28;20054;-62
2023/03/10 00:07:52;;;;;;;3.15;1.35;;;;;;;8.08;72.99;98690.41;5120772;28;20043;-62
2023/03/10 00:10:21;;;;;;;3.35;1.45;;;;;;;8.05;72.69;98689.03;5117731;28;20130;-62
2023/03/10 00:12:49;;;;;;;3.70;1.88;;;;;;;8.09;72.83;98694.69;5107656;28;20100;-62
2023/03/10 00:15:17;;;;;;;3.92;1.73;;;;;;;8.09;73.08;98692.00;5111933;28;20051;-63
2023/03/10 00:17:45;;;;;;;4.45;1.60;;;;;;;8.10;72.96;98690.94;5117963;28;20048;-63
2023/03/10 00:20:13;;;;;;;3.88;1.80;;;;;;;8.09;72.98;98689.34;5116945;28;20114;-63
2023/03/10 00:22:41;;;;;;;6.15;1.52;;;;;;;8.10;72.77;98682.91;5117803;28;20079;-62
2023/03/10 00:25:10;;;;;;;2.58;1.40;;;;;;;8.10;72.52;98683.72;5117371;28;20044;-62
2023/03/10 00:27:39;;;;;;;4.95;1.70;;;;;;;8.10;73.21;98686.41;5107439;28;20103;-62
2023/03/10 00:30:08;;;;;;;2.53;1.30;;;;;;;8.12;73.05;98680.78;5106081;28;20073;-62
2023/03/10 00:32:36;;;;;;;2.88;1.35;;;;;;;8.13;73.01;98685.09;5110728;28;20127;-63
2023/03/10 00:35:05;;;;;;;3.28;1.42;;;;;;;8.12;72.46;98676.25;5119112;28;20043;-62
2023/03/10 00:37:36;;;;;;;2.15;1.27;;;;;;;8.12;72.71;98673.56;5106076;28;20044;-62
2023/03/10 00:40:06;;;;;;;3.05;1.60;;;;;;;8.11;72.61;98692.56;5110637;28;20059;-62
2023/03/10 00:42:33;;;;;;;3.47;1.60;;;;;;;8.11;73.19;98688.00;5115811;28;20090;-62
2023/03/10 00:45:03;;;;;;;2.08;1.20;;;;;;;8.11;72.09;98677.31;5120668;28;20051;-62
2023/03/10 00:47:30;;;;;;;3.63;1.50;;;;;;;8.10;72.69;98681.06;5117840;28;20044;-63
2023/03/10 00:50:08;;;;;;;4.32;1.60;;;;;;;8.11;72.44;98688.00;5122643;28;20052;-63
2023/03/10 00:52:38;;;;;;;4.30;1.77;;;;;;;8.12;72.85;98688.81;5111173;28;20052;-63
2023/03/10 00:55:06;;;;;;;4.03;1.33;;;;;;;8.12;72.71;98686.94;5115173;28;20040;-63
2023/03/10 00:57:37;;;;;;;2.25;1.27;;;;;;;8.12;72.73;98686.94;5117716;28;20039;-63
2023/03/10 01:00:08;;;;;;;1.88;1.25;;;;;;;8.11;71.81;98687.22;5118851;28;20127;-63
2023/03/10 01:02:36;;;;;;;2.42;1.65;;;;;;;8.12;72.66;98689.63;5121414;28;20071;-62
2023/03/10 01:05:04;;;;;;;2.75;1.67;;;;;;;8.13;72.03;98679.72;5124610;28;20039;-62
2023/03/10 01:07:32;;;;;;;2.97;1.63;;;;;;;8.13;72.46;98683.22;5118498;28;20108;-63
2023/03/10 01:10:00;;;;;;;1.52;1.10;;;;;;;8.14;72.21;98686.69;5124321;27;20334;-61
2023/03/10 01:12:28;;;;;;;3.20;1.40;;;;;;;8.14;72.13;98687.50;5114843;28;20244;-62
2023/03/10 01:14:55;;;;;;;2.30;1.58;;;;;;;8.14;72.56;98682.16;5121408;27;20078;-63
2023/03/10 01:17:24;;;;;;;2.83;1.40;;;;;;;8.14;72.07;98684.81;5123846;28;20429;-62
2023/03/10 01:19:52;;;;;;;2.03;1.55;;;;;;;8.14;72.06;98679.47;5117223;28;20520;-62
2023/03/10 01:22:20;;;;;;;3.47;1.80;;;;;;;8.15;72.09;98677.59;5115408;28;20050;-62
2023/03/10 01:24:48;;;;;;;3.95;1.63;;;;;;;8.16;72.29;98665.84;5121723;27;20075;-62
2023/03/10 01:27:16;;;;;;;2.17;1.38;;;;;;;8.14;72.38;98668.78;5121679;28;20051;-62
2023/03/10 01:29:43;;;;;;;2.42;1.60;;;;;;;8.16;72.28;98663.16;5120019;28;20051;-62
2023/03/10 01:32:11;;;;;;;4.45;1.85;;;;;;;8.16;71.69;98663.16;5114876;28;20048;-62
2023/03/10 01:34:40;;;;;;;4.47;1.50;;;;;;;8.17;71.58;98659.41;5117528;28;20237;-62
2023/03/10 01:37:08;;;;;;;2.50;1.55;;;;;;;8.18;72.53;98662.91;5124686;28;20050;-63
2023/03/10 01:39:36;;;;;;;3.92;1.58;;;;;;;8.18;72.29;98666.38;5121553;28;20588;-63
2023/03/10 01:42:04;;;;;;;3.63;1.70;;;;;;;8.19;72.08;98661.84;5122222;28;20473;-63
2023/03/10 01:44:32;;;;;;;3.33;1.75;;;;;;;8.19;72.22;98643.91;5121300;28;20047;-62
2023/03/10 01:47:00;;;;;;;2.80;1.80;;;;;;;8.19;72.47;98638.56;5122998;28;20127;-61
2023/03/10 01:49:37;;;;;;;2.33;1.35;;;;;;;8.20;71.68;98639.38;5113991;27;20051;-63
2023/03/10 01:52:11;;;;;;;3.25;1.77;;;;;;;8.21;72.56;98643.66;5119018;28;20107;-63
2023/03/10 01:54:45;;;;;;;2.47;1.60;;;;;;;8.23;72.09;98641.53;5111088;28;20104;-62
2023/03/10 01:57:14;;;;;;;2.97;1.65;;;;;;;8.23;71.94;98645.00;5118896;28;20047;-62
2023/03/10 01:59:43;;;;;;;1.55;1.35;;;;;;;8.23;72.07;98630.81;5116379;28;20086;-62
2023/03/10 02:02:11;;;;;;;3.28;1.65;;;;;;;8.23;72.44;98642.31;5116852;28;20047;-62
2023/03/10 02:04:44;;;;;;;3.20;1.80;;;;;;;8.24;72.30;98643.94;5117775;28;20047;-62
2023/03/10 02:07:14;;;;;;;2.60;1.77;;;;;;;8.26;72.26;98641.00;5119310;28;20107;-62
2023/03/10 02:09:45;;;;;;;1.85;1.30;;;;;;;8.25;72.24;98631.34;5113179;28;20048;-62
2023/03/10 02:12:15;;;;;;;3.17;1.80;;;;;;;8.26;72.55;98625.75;5123484;28;20074;-63
2023/03/10 02:14:44;;;;;;;3.65;1.95;;;;;;;8.27;72.52;98621.19;5122991;28;20071;-62
2023/03/10 02:17:16;;;;;;;3.45;1.75;;;;;;;8.26;72.57;98620.41;5120873;28;20131;-62
2023/03/10 02:20:05;;;;;;;5.05;1.80;;;;;;;8.28;72.54;98625.50;5120055;28;20511;-63
2023/03/10 02:22:34;;;;;;;3.85;1.95;;;;;;;8.26;72.34;98622.28;5119911;28;20103;-63
2023/03/10 02:25:11;;;;;;;2.42;1.58;;;;;;;8.27;72.60;98613.97;5122531;28;20046;-63
2023/03/10 02:27:40;;;;;;;2.47;1.50;;;;;;;8.28;72.29;98610.25;5119792;28;20047;-63
2023/03/10 02:30:13;;;;;;;4.22;1.80;;;;;;;8.28;72.54;98610.25;5125530;28;20405;-62
2023/03/10 02:32:44;;;;;;;2.50;1.50;;;;;;;8.28;72.24;98604.88;5123672;28;20052;-62
2023/03/10 02:35:12;;;;;;;1.92;1.30;;;;;;;8.29;72.37;98611.84;5116195;28;20055;-62
2023/03/10 02:37:40;;;;;;;3.75;1.60;;;;;;;8.31;72.19;98608.91;5124906;28;20312;-63
2023/03/10 02:40:30;;;;;;;2.75;1.88;;;;;;;8.29;72.42;98609.16;5123412;28;20051;-63
2023/03/10 02:43:01;;;;;;;2.10;1.17;;;;;;;8.30;72.64;98608.09;5115066;28;20251;-62
2023/03/10 02:45:32;;;;;;;3.85;1.70;;;;;;;8.29;72.24;98597.66;5116750;28;20408;-61
2023/03/10 02:48:00;;;;;;;2.83;1.52;;;;;;;8.29;72.31;98592.31;5120803;28;20141;-61
2023/03/10 02:50:33;;;;;;;1.80;1.48;;;;;;;8.31;71.81;98598.19;5116385;28;20066;-63
2023/03/10 02:53:06;;;;;;;1.75;1.17;;;;;;;8.30;72.23;98591.25;5122807;28;20112;-63
2023/03/10 02:55:34;;;;;;;3.80;2.15;;;;;;;8.31;72.31;98588.31;5124270;28;20080;-63
2023/03/10 02:58:03;;;;;;;3.05;1.40;;;;;;;8.30;72.72;98580.53;5124396;28;20071;-63
2023/03/10 03:00:31;;;;;;;2.40;1.50;;;;;;;8.31;72.67;98584.81;5117744;27;20304;-63
2023/03/10 03:02:59;;;;;;;2.42;1.38;;;;;;;8.29;72.73;98582.41;5118806;28;20104;-63
2023/03/10 03:05:27;;;;;;;3.90;1.30;;;;;;;8.29;72.28;98577.06;5110962;28;20067;-63
2023/03/10 03:07:54;;;;;;;4.15;1.55;;;;;;;8.30;73.05;98572.50;5118630;28;20715;-63
2023/03/10 03:10:22;;;;;;;3.75;1.90;;;;;;;8.31;72.47;98569.56;5115784;28;20135;-63
2023/03/10 03:12:50;;;;;;;2.30;1.38;;;;;;;8.29;72.76;98561.00;5121587;28;20103;-63
2023/03/10 03:15:19;;;;;;;2.88;1.60;;;;;;;8.29;72.80;98566.34;5119742;28;20138;-63
2023/03/10 03:17:47;;;;;;;4.45;1.80;;;;;;;8.30;72.19;98567.16;5117416;27;20071;-63
2023/03/10 03:20:15;;;;;;;1.60;1.23;;;;;;;8.31;71.85;98566.09;5105745;28;20070;-63
2023/03/10 03:22:45;;;;;;;3.67;1.50;;;;;;;8.30;72.78;98564.47;5109976;28;20102;-62
2023/03/10 03:25:16;;;;;;;2.70;1.42;;;;;;;8.31;72.65;98561.53;5118172;27;20105;-62
2023/03/10 03:27:44;;;;;;;1.73;1.08;;;;;;;8.31;72.47;98566.91;5120634;28;20048;-62
2023/03/10 03:30:16;;;;;;;3.08;1.17;;;;;;;8.31;72.98;98566.91;5115877;28;20071;-62
2023/03/10 03:32:45;;;;;;;2.20;1.20;;;;;;;8.32;72.53;98570.38;5109674;28;20071;-63
2023/03/10 03:35:16;;;;;;;4.30;1.60;;;;;;;8.31;72.29;98560.75;5117631;28;20043;-63
2023/03/10 03:37:44;;;;;;;5.18;1.40;;;;;;;8.32;71.92;98565.03;5120778;28;20048;-62
2023/03/10 03:40:14;;;;;;;4.22;1.40;;;;;;;8.32;71.60;98560.47;5122058;28;20111;-62
2023/03/10 03:42:43;;;;;;;5.28;1.50;;;;;;;8.32;72.16;98562.34;5117191;28;20043;-62
2023/03/10 03:45:13;;;;;;;1.77;1.10;;;;;;;8.33;72.63;98562.13;5121066;28;20051;-62
2023/03/10 03:47:41;;;;;;;5.40;1.35;;;;;;;8.31;72.33;98558.88;5128548;27;20087;-62
2023/03/10 03:50:13;;;;;;;3.30;1.10;;;;;;;8.24;72.25;98544.94;5115126;27;20053;-62
2023/03/10 03:52:42;;;;;;;3.17;1.45;;;;;;;8.32;72.27;98562.34;5113559;28;20087;-62
2023/03/10 03:55:11;;;;;;;1.33;1.08;;;;;;;8.34;72.31;98552.22;5112527;27;20119;-62
2023/03/10 03:57:39;;;;;;;2.30;0.98;;;;;;;8.36;72.62;98550.09;5113774;28;20055;-65
2023/03/10 04:00:13;;;;;;;2.30;1.00;;;;;;;8.35;71.88;98551.16;5110315;28;20138;-63
2023/03/10 04:02:40;;;;;;;4.15;1.95;;;;;;;8.36;71.67;98552.75;5105845;28;20044;-63
2023/03/10 04:05:10;;;;;;;5.63;1.10;;;;;;;8.37;71.30;98547.13;5118690;28;20074;-62
2023/03/10 04:07:39;;;;;;;1.23;1.10;;;;;;;8.38;71.90;98542.59;5119458;28;20110;-63
2023/03/10 04:10:10;;;;;;;3.63;1.13;;;;;;;8.40;72.03;98537.78;5114195;28;20044;-63
2023/03/10 04:12:38;;;;;;;3.10;1.35;;;;;;;8.40;71.76;98535.91;5107305;28;20050;-62
2023/03/10 04:15:07;;;;;;;6.43;1.60;;;;;;;8.37;71.89;98532.97;5112489;28;20443;-63
2023/03/10 04:17:35;;;;;;;1.95;1.08;;;;;;;8.41;72.43;98539.38;5117362;28;20063;-62
2023/03/10 04:20:04;;;;;;;6.25;2.05;;;;;;;8.40;72.11;98535.91;5111632;28;20044;-62
2023/03/10 04:22:36;;;;;;;5.32;1.55;;;;;;;8.40;72.30;98530.56;5119704;28;20496;-62
2023/03/10 04:25:05;;;;;;;3.72;1.50;;;;;;;8.40;72.15;98527.88;5119708;28;20051;-62
2023/03/10 04:27:34;;;;;;;2.90;1.58;;;;;;;8.39;72.34;98526.28;5118573;28;20378;-63
2023/03/10 04:30:02;;;;;;;3.10;1.20;;;;;;;8.38;72.12;98530.00;5110559;28;20115;-63
2023/03/10 04:32:31;;;;;;;5.45;1.40;;;;;;;8.39;72.25;98526.28;5118843;28;20043;-61
2023/03/10 04:34:58;;;;;;;5.05;1.77;;;;;;;8.40;72.26;98535.91;5109135;28;20048;-62
2023/03/10 04:37:26;;;;;;;4.60;1.67;;;;;;;8.41;72.63;98534.03;5119069;28;20123;-62
2023/03/10 04:39:55;;;;;;;5.45;1.30;;;;;;;8.40;72.52;98535.09;5126044;28;20102;-62
2023/03/10 04:42:25;;;;;;;7.57;1.60;;;;;;;8.40;73.45;98525.19;5125559;28;20077;-62
2023/03/10 04:44:53;;;;;;;7.53;1.77;;;;;;;8.39;72.65;98531.63;5123452;28;20051;-62
2023/03/10 04:47:21;;;;;;;4.30;1.30;;;;;;;8.40;73.02;98519.03;5117620;28;20047;-63
2023/03/10 04:49:48;;;;;;;8.15;2.22;;;;;;;8.39;73.25;98520.13;5123661;28;20099;-63
2023/03/10 04:52:16;;;;;;;6.38;1.60;;;;;;;8.38;73.77;98522.00;5116526;28;20091;-62
2023/03/10 04:54:44;;;;;;;3.55;1.48;;;;;;;8.39;72.91;98523.59;5125912;28;20081;-62
2023/03/10 04:57:13;;;;;;;8.85;1.45;;;;;;;8.38;72.89;98516.63;5120945;28;20055;-62
2023/03/10 04:59:41;;;;;;;4.00;1.05;;;;;;;8.38;73.05;98519.31;5116754;27;20040;-62
2023/03/10 05:02:08;;;;;;;4.25;1.33;;;;;;;8.39;72.82;98518.25;5112238;28;20087;-62
2023/03/10 05:04:38;;;;;;;6.20;1.33;;;;;;;8.38;73.20;98518.50;5119223;28;20051;-62
2023/03/10 05:07:06;;;;;;;3.28;1.63;;;;;;;8.38;73.34;98519.31;5120917;28;20043;-63
2023/03/10 05:09:35;;;;;;;5.82;1.50;;;;;;;8.38;72.73;98519.31;5119008;27;20044;-61
2023/03/10 05:12:04;;;;;;;6.70;1.63;;;;;;;8.38;72.43;98513.16;5119247;28;20142;-62
2023/03/10 05:14:33;;;;;;;4.97;1.20;;;;;;;8.38;72.34;98505.94;5123292;28;20104;-62
2023/03/10 05:17:01;;;;;;;5.55;1.48;;;;;;;8.38;72.68;98507.81;5118637;27;20051;-62
2023/03/10 05:19:28;;;;;;;3.15;1.10;;;;;;;8.39;72.80;98509.41;5124004;28;20071;-62
2023/03/10 05:21:56;;;;;;;3.80;1.40;;;;;;;8.34;72.76;98501.38;5122891;28;20067;-62
2023/03/10 05:24:24;;;;;;;2.72;1.20;;;;;;;8.38;71.60;98511.28;5117260;27;20054;-63
2023/03/10 05:26:52;;;;;;;2.80;1.23;;;;;;;8.37;71.94;98514.22;5114267;28;20576;-62
2023/03/10 05:29:19;;;;;;;5.40;2.25;;;;;;;8.38;72.42;98511.28;5123867;28;20047;-64
2023/03/10 05:31:49;;;;;;;10.20;2.08;;;;;;;8.38;72.64;98518.50;5116269;28;20536;-62
2023/03/10 05:34:16;;;;;;;5.03;1.50;;;;;;;8.37;73.37;98516.91;5119093;28;20148;-62
2023/03/10 05:36:44;;;;;;;6.88;1.48;;;;;;;8.37;72.54;98512.34;5116767;28;20122;-62
2023/03/10 05:39:12;;;;;;;6.25;1.58;;;;;;;8.38;72.51;98515.84;5115666;28;20039;-62
2023/03/10 05:41:40;;;;;;;4.28;1.27;;;;;;;8.37;72.58;98508.88;5124520;28;20073;-63
2023/03/10 05:44:07;;;;;;;4.10;1.40;;;;;;;8.39;72.68;98512.09;5112460;28;20071;-63
2023/03/10 05:46:35;;;;;;;5.22;1.40;;;;;;;8.38;72.92;98505.94;5116167;28;20067;-63
2023/03/10 05:49:04;;;;;;;5.60;1.50;;;;;;;8.38;73.04;98508.59;5118712;28;20051;-63
2023/03/10 05:51:32;;;;;;;7.53;1.95;;;;;;;8.38;72.53;98505.94;5122262;28;20062;-63
2023/03/10 05:54:00;;;;;;;2.83;1.13;;;;;;;8.40;72.15;98508.34;5119204;28;20496;-63
2023/03/10 05:56:27;;;;;;;6.20;1.90;;;;;;;8.41;72.50;98507.28;5118691;27;20544;-64
2023/03/10 05:58:55;;;;;;;4.47;2.22;;;;;;;8.42;72.10;98508.88;5122758;28;20079;-62
2023/03/10 06:01:23;;;;;;;3.40;1.23;;;;;;;8.41;72.43;98505.41;5107635;28;20055;-62
2023/03/10 06:03:51;;;;;;;6.05;1.98;;;;;;;8.41;71.66;98510.75;5120296;28;20082;-62
2023/03/10 06:06:20;;;;;;;6.05;1.60;;;;;;;8.43;72.68;98511.28;5125623;28;20048;-63
2023/03/10 06:08:48;;;;;;;4.00;1.17;;;;;;;8.43;72.33;98519.31;5124077;27;20481;-62
2023/03/10 06:11:17;;;;;;;6.55;1.60;;;;;;;8.43;72.40;98515.84;5128783;27;20111;-63
2023/03/10 06:13:45;;;;;;;6.82;1.80;;;;;;;8.43;71.57;98510.50;5118257;28;20047;-62
2023/03/10 06:16:12;;;;;;;5.78;1.48;;;;;;;8.43;72.93;98510.50;5125460;28;20134;-62
2023/03/10 06:18:40;;;;;;;6.10;2.00;;;;;;;8.44;71.72;98520.94;5116799;28;20063;-62
2023/03/10 06:21:13;;;;;;;6.85;2.20;;;;;;;8.44;72.47;98518.25;5121964;28;20051;-63
2023/03/10 06:23:43;;;;;;;6.63;1.50;;;;;;;8.46;72.53;98520.66;5118130;27;20069;-62
2023/03/10 06:26:13;;;;;;;5.00;1.65;;;;;;;8.45;71.90;98521.72;5116439;28;20048;-61
2023/03/10 06:28:43;;;;;;;6.40;1.90;;;;;;;8.44;72.79;98520.94;5116119;28;20052;-62
2023/03/10 06:31:15;;;;;;;4.85;1.80;;;;;;;8.44;72.60;98528.97;5120529;28;20559;-62
2023/03/10 06:33:43;;;;;;;5.88;1.73;;;;;;;8.45;72.70;98524.41;5117898;28;20055;-62
2023/03/10 06:36:13;;;;;;;4.80;1.40;;;;;;;8.45;73.22;98530.56;5118027;28;20483;-63
2023/03/10 06:38:41;;;;;;;5.78;1.60;;;;;;;8.44;71.70;98526.28;5120695;28;20484;-63
2023/03/10 06:41:10;;;;;;;5.50;1.50;;;;;;;8.43;72.13;98524.69;5121500;28;20103;-64
2023/03/10 06:43:39;;;;;;;4.32;1.60;;;;;;;8.44;72.72;98536.19;5117297;28;20122;-64
2023/03/10 06:46:09;;;;;;;6.63;1.60;;;;;;;8.45;73.28;98540.47;5121440;28;20043;-62
2023/03/10 06:48:39;;;;;;;6.72;1.65;;;;;;;8.45;72.17;98538.59;5120242;28;20111;-64
2023/03/10 06:51:08;;;;;;;6.55;1.63;;;;;;;8.37;72.87;98528.41;5121476;28;20405;-63
2023/03/10 06:53:36;;;;;;;7.13;1.88;;;;;;;8.46;72.19;98540.22;5122785;28;20122;-62
2023/03/10 06:56:06;;;;;;;8.73;2.33;;;;;;;8.46;72.74;98534.84;5124313;28;20468;-61
2023/03/10 06:58:37;;;;;;;9.35;2.25;;;;;;;8.46;72.38;98545.56;4764404;27;10000013;-61
2023/03/10 07:01:06;;;;;;;6.30;2.20;;;;;;;8.45;72.20;98543.94;5110883;28;20494;-61
2023/03/10 07:03:34;;;;;;;6.57;1.95;;;;;;;8.46;71.83;98537.53;5119574;28;20111;-62
2023/03/10 07:06:03;;;;;;;7.35;2.33;;;;;;;8.45;71.63;98535.91;5117731;28;20066;-61
2023/03/10 07:08:31;;;;;;;2.10;1.35;;;;;;;8.47;71.75;98533.78;5121123;28;20051;-61
2023/03/10 07:10:59;;;;;;;5.97;2.00;;;;;;;8.48;71.90;98545.28;5115250;28;20595;-62
2023/03/10 07:13:26;;;;;;;6.13;2.13;;;;;;;8.48;72.23;98542.63;5109730;28;20380;-62
2023/03/10 07:15:56;;;;;;;10.00;2.38;;;;;;;8.46;71.88;98542.88;5116436;28;20051;-65
2023/03/10 07:18:26;;;;;;;8.55;2.00;;;;;;;8.50;71.49;98542.34;5119731;28;20043;-63
2023/03/10 07:20:54;;;;;;;5.07;2.05;;;;;;;8.51;71.72;98544.75;5109550;28;20516;-63
2023/03/10 07:23:22;;;;;;;6.35;1.58;;;;;;;8.51;72.08;98539.41;5123723;28;20052;-62
2023/03/10 07:25:53;;;;;;;9.20;1.83;;;;;;;8.51;72.36;98552.78;5117725;28;20044;-63
2023/03/10 07:28:20;;;;;;;6.20;1.45;;;;;;;8.52;72.41;98558.97;5109872;28;20081;-62
2023/03/10 07:30:49;;;;;;;6.13;1.83;;;;;;;8.53;72.83;98564.03;4757488;28;9999958;-61
2023/03/10 07:33:18;;;;;;;8.65;1.90;;;;;;;8.54;72.44;98562.19;5114360;28;20055;-62
2023/03/10 07:35:46;;;;;;;6.95;1.65;;;;;;;8.56;72.28;98565.38;5117471;27;20496;-61
2023/03/10 07:38:13;;;;;;;5.55;1.90;;;;;;;8.56;72.00;98560.03;5106041;28;20505;-62
2023/03/10 07:40:42;;;;;;;6.05;2.33;;;;;;;8.57;72.05;98557.09;5119717;28;20035;-60
2023/03/10 07:43:09;;;;;;;8.68;2.05;;;;;;;8.59;71.82;98559.50;5117321;28;20157;-60
2023/03/10 07:45:38;;;;;;;7.15;1.50;;;;;;;8.57;71.90;98556.28;5118108;28;20058;-61
2023/03/10 07:48:06;;;;;;;5.68;1.83;;;;;;;8.61;71.51;98570.75;5115268;28;20111;-60
2023/03/10 07:50:35;;;;;;;6.68;2.67;;;;;;;8.61;72.36;98566.22;5104151;28;20043;-61
2023/03/10 07:53:03;;;;;;;4.78;1.45;;;;;;;8.61;72.30;98560.84;5107603;28;20132;-61
2023/03/10 07:55:31;;;;;;;6.68;2.40;;;;;;;8.62;72.42;98559.78;5108638;28;20044;-60
2023/03/10 07:58:00;;;;;;;4.78;1.38;;;;;;;8.67;72.35;98565.13;5116031;28;20047;-61
2023/03/10 08:00:28;;;;;;;5.07;1.45;;;;;;;8.65;72.05;98561.13;5114077;28;20063;-60
2023/03/10 08:02:55;;;;;;;4.82;1.45;;;;;;;8.66;71.98;98560.84;5115230;28;20054;-61
2023/03/10 08:05:23;;;;;;;4.70;1.38;;;;;;;8.68;72.26;98565.91;5105807;28;20154;-61
2023/03/10 08:07:52;;;;;;;5.00;1.65;;;;;;;8.68;71.86;98566.72;5112623;28;20115;-59
2023/03/10 08:10:20;;;;;;;3.80;1.40;;;;;;;8.68;71.75;98557.88;5111972;28;20046;-61
2023/03/10 08:12:48;;;;;;;4.40;1.52;;;;;;;8.70;72.58;98572.63;5118218;28;20074;-61
2023/03/10 08:15:16;;;;;;;3.40;1.42;;;;;;;8.70;72.49;98563.78;5108856;28;20055;-61
2023/03/10 08:17:44;;;;;;;6.40;1.75;;;;;;;8.70;72.60;98566.47;5106818;28;20485;-60
2023/03/10 08:20:12;;;;;;;6.47;1.95;;;;;;;8.72;72.44;98567.81;5116910;27;20069;-61
2023/03/10 08:22:40;;;;;;;7.45;1.80;;;;;;;8.74;71.94;98564.84;5118097;27;20083;-62
2023/03/10 08:25:11;;;;;;;4.75;2.08;;;;;;;8.74;72.02;98564.84;5119585;28;20530;-62
2023/03/10 08:27:40;;;;;;;8.05;1.52;;;;;;;8.77;72.44;98565.13;5113564;28;20533;-60
2023/03/10 08:30:09;;;;;;;7.28;2.47;;;;;;;8.79;72.26;98571.03;5119496;28;20051;-60
2023/03/10 08:32:37;;;;;;;4.53;1.90;;;;;;;8.80;72.68;98563.78;5118468;28;20048;-61
2023/03/10 08:35:06;;;;;;;6.18;1.50;;;;;;;8.84;72.00;98567.56;5120746;28;20048;-61
2023/03/10 08:37:33;;;;;;;9.82;1.90;;;;;;;8.83;71.89;98568.63;5117044;28;20054;-61
2023/03/10 08:40:02;;;;;;;3.65;1.25;;;;;;;8.84;71.88;98572.91;5116206;28;20039;-62
2023/03/10 08:42:32;;;;;;;5.65;1.08;;;;;;;8.90;71.86;98565.69;5118047;28;20113;-61
2023/03/10 08:45:00;;;;;;;4.30;1.40;;;;;;;8.89;71.87;98566.75;5121661;28;20048;-61
2023/03/10 08:47:28;;;;;;;3.33;1.17;;;;;;;8.92;72.42;98566.22;5117402;28;20054;-60
2023/03/10 08:49:59;;;;;;;4.15;1.52;;;;;;;9.07;71.62;98561.69;5115974;28;20480;-61
2023/03/10 08:52:27;;;;;;;7.28;1.70;;;;;;;9.24;71.75;98568.63;5114853;28;20075;-62
2023/03/10 08:54:54;;;;;;;6.97;1.83;;;;;;;9.44;70.78;98566.75;5122226;28;20101;-61
2023/03/10 08:57:26;;;;;;;7.85;2.00;;;;;;;9.60;70.47;98564.03;5113549;28;20146;-61
2023/03/10 08:59:55;;;;;;;7.85;1.88;;;;;;;9.80;69.70;98572.03;5118582;28;20057;-62
2023/03/10 09:02:24;;;;;;;7.75;2.20;;;;;;;9.98;69.44;98563.41;5115424;28;20058;-61
2023/03/10 09:04:52;;;;;;;6.65;1.80;;;;;;;10.17;68.71;98570.84;5110618;28;20074;-61
2023/03/10 09:07:19;;;;;;;5.50;2.00;;;;;;;10.33;68.18;98570.53;5111599;28;20115;-60
2023/03/10 09:09:47;;;;;;;7.72;1.95;;;;;;;10.52;67.47;98572.56;5119209;28;20400;-61
2023/03/10 09:12:15;;;;;;;11.10;2.45;;;;;;;10.71;66.86;98570.84;5122246;28;20047;-61
2023/03/10 09:14:43;;;;;;;6.28;1.63;;;;;;;10.85;66.49;98571.03;5122196;28;20111;-60
2023/03/10 09:17:12;;;;;;;6.90;1.92;;;;;;;10.92;66.21;98566.94;5114112;28;20056;-61
2023/03/10 09:19:39;;;;;;;7.63;1.80;;;;;;;11.02;65.66;98572.25;5115891;28;20124;-61
2023/03/10 09:22:07;;;;;;;7.45;1.58;;;;;;;11.05;65.41;98562.81;5117766;28;20097;-61
2023/03/10 09:24:35;;;;;;;5.80;1.80;;;;;;;10.99;65.68;98572.81;5118186;27;20042;-61
2023/03/10 09:27:03;;;;;;;7.07;1.35;;;;;;;10.95;65.79;98574.44;5117555;27;20093;-61
2023/03/10 09:29:33;;;;;;;11.25;1.83;;;;;;;10.74;66.78;98568.41;5119392;27;20362;-61
2023/03/10 09:32:12;;;;;;;6.03;1.90;;;;;;;10.51;67.42;98576.31;5116609;27;20085;-59
2023/03/10 09:34:40;;;;;;;8.07;2.28;;;;;;;10.36;68.13;98571.88;5117845;27;20043;-59
2023/03/10 09:37:07;;;;;;;6.72;2.05;;;;;;;10.21;68.71;98570.06;5123163;27;20039;-60
2023/03/10 09:39:35;;;;;;;9.85;2.78;;;;;;;10.10;69.66;98573.81;5117131;27;20071;-60
2023/03/10 09:42:23;;;;;;;7.68;1.83;;;;;;;10.00;69.94;98580.03;5118201;27;20129;-60
2023/03/10 09:45:20;;;;;;;5.03;1.67;;;;;;;10.08;69.59;98576.78;5121051;27;20043;-61
2023/03/10 09:47:59;;;;;;;5.45;1.42;;;;;;;9.98;70.21;98584.06;5118853;27;20069;-61
2023/03/10 09:50:34;;;;;;;8.13;2.00;;;;;;;9.91;70.50;98568.25;5121798;27;20078;-62
2023/03/10 09:53:07;;;;;;;7.45;1.77;;;;;;;9.92;70.51;98567.19;5116379;27;20071;-61
2023/03/10 09:55:39;;;;;;;9.85;1.88;;;;;;;9.91;70.79;98583.56;5115846;27;20051;-62
2023/03/10 09:58:26;;;;;;;9.27;1.77;;;;;;;9.84;71.15;98583.03;5116410;28;20474;-62
2023/03/10 10:00:54;;;;;;;7.05;2.78;;;;;;;10.02;70.71;98590.50;5114048;28;20131;-60
2023/03/10 10:03:31;;;;;;;11.82;2.60;;;;;;;10.11;70.66;98588.84;5116338;27;20461;-61
2023/03/10 10:06:18;;;;;;;4.63;1.67;;;;;;;10.28;70.00;98586.66;5120663;28;20131;-61
2023/03/10 10:08:51;;;;;;;4.38;1.85;;;;;;;10.47;69.18;98584.13;5123232;27;20400;-60
2023/03/10 10:11:32;;;;;;;13.35;2.88;;;;;;;10.69;68.62;98589.13;5119201;28;20051;-61
2023/03/10 10:14:20;;;;;;;7.03;1.70;;;;;;;10.85;68.19;98596.00;5118785;28;20128;-61
2023/03/10 10:17:07;;;;;;;4.80;1.90;;;;;;;11.01;67.82;98594.81;5114607;28;20676;-60
2023/03/10 10:19:38;;;;;;;8.70;1.90;;;;;;;11.18;66.93;98596.31;5108779;28;20052;-61
2023/03/10 10:22:13;;;;;;;7.57;2.25;;;;;;;11.34;66.56;98592.41;5118282;28;20059;-61
2023/03/10 10:24:41;;;;;;;7.72;2.30;;;;;;;11.44;66.07;98591.53;5114922;28;20501;-61
2023/03/10 10:27:09;;;;;;;7.07;2.03;;;;;;;11.52;65.87;98590.91;5114668;28;20116;-60
2023/03/10 10:29:41;;;;;;;7.15;1.88;;;;;;;11.57;65.97;98596.25;5115098;27;20652;-60
2023/03/10 10:32:10;;;;;;;7.90;2.28;;;;;;;11.60;65.61;98588.44;5119669;28;20107;-60
2023/03/10 10:34:41;;;;;;;6.03;1.77;;;;;;;11.60;65.19;98596.50;5118285;27;20115;-60
2023/03/10 10:37:26;;;;;;;5.50;1.50;;;;;;;11.65;65.25;98596.44;5119697;28;20067;-60
2023/03/10 10:39:56;;;;;;;4.97;1.55;;;;;;;11.67;65.07;98588.88;4752516;27;9999944;-61
2023/03/10 10:42:27;;;;;;;9.38;2.60;;;;;;;11.69;65.07;98584.03;5118816;28;20036;-61
2023/03/10 10:44:56;;;;;;;4.93;1.63;;;;;;;11.69;64.98;98586.72;5115523;28;20118;-61
2023/03/10 10:47:28;;;;;;;8.32;2.03;;;;;;;11.72;64.90;98577.28;5115224;28;20070;-61
2023/03/10 10:50:16;;;;;;;5.60;1.80;;;;;;;11.75;65.01;98574.03;5120663;28;20082;-62
2023/03/10 10:52:47;;;;;;;8.30;2.03;;;;;;;11.76;65.02;98575.63;5113182;28;20099;-62
2023/03/10 10:55:29;;;;;;;5.20;2.45;;;;;;;11.69;65.11;98570.56;5117898;28;20271;-61
2023/03/10 10:57:59;;;;;;;6.53;1.92;;;;;;;11.52;65.55;98564.03;5117213;27;20456;-61
2023/03/10 11:00:31;;;;;;;5.90;1.67;;;;;;;11.31;66.50;98556.16;5117943;28;20047;-62
2023/03/10 11:02:58;;;;;;;6.28;1.75;;;;;;;11.12;67.26;98554.44;5107600;28;20094;-61
2023/03/10 11:05:34;;;;;;;7.32;2.10;;;;;;;10.95;67.96;98560.19;5114949;27;20082;-62
2023/03/10 11:08:17;;;;;;;9.47;1.83;;;;;;;10.80;68.24;98553.06;5117928;27;20195;-64
2023/03/10 11:10:54;;;;;;;5.95;1.83;;;;;;;10.70;68.88;98553.13;5115196;28;20331;-65
2023/03/10 11:13:27;;;;;;;3.78;1.52;;;;;;;10.59;69.28;98560.44;5112282;27;20044;-66
2023/03/10 11:16:01;;;;;;;6.13;1.23;;;;;;;10.54;69.74;98567.72;5119594;28;20082;-66
2023/03/10 11:18:35;;;;;;;9.50;2.17;;;;;;;10.48;69.90;98566.94;5113516;28;20044;-63
2023/03/10 11:21:13;;;;;;;5.80;1.52;;;;;;;10.45;69.83;98559.44;5114509;28;20048;-61
2023/03/10 11:23:49;;;;;;;4.57;1.60;;;;;;;10.40;70.21;98560.28;5109348;28;20106;-60
2023/03/10 11:26:26;;;;;;;5.20;1.63;;;;;;;10.36;70.42;98561.94;5114922;28;20130;-61
2023/03/10 11:28:56;;;;;;;;;;;;;;;10.37;70.57;98555.47;5119427;28;20061;-61
2023/03/10 11:31:36;;;;;;;4.47;1.40;;;;;;;10.31;71.00;98553.09;5114209;28;19991;-62
2023/03/10 11:34:19;;;;;;;5.15;1.30;;;;;;;10.26;70.84;98551.25;5110150;28;20546;-62
2023/03/10 11:36:57;;;;;;;9.02;1.85;;;;;;;10.27;71.02;98547.47;5111091;28;20490;-62
2023/03/10 11:39:38;;;;;;;5.40;1.50;;;;;;;10.27;71.18;98541.31;5111635;28;20562;-62
2023/03/10 11:42:14;;;;;;;4.57;1.30;;;;;;;10.23;71.17;98545.63;5113025;28;20119;-63
2023/03/10 11:44:52;;;;;;;4.15;1.35;;;;;;;10.19;71.22;98539.97;5111828;28;20074;-63
2023/03/10 11:47:28;;;;;;;3.75;1.48;;;;;;;10.19;71.42;98536.47;5109834;28;20945;-62
2023/03/10 11:50:08;;;;;;;3.53;1.33;;;;;;;10.16;71.58;98537.84;5111072;28;20051;-62
2023/03/10 11:52:37;;;;;;;6.80;1.50;;;;;;;10.14;71.51;98545.38;5109746;28;20078;-62